createdAt,value
2019-03-11T00:00:44.577Z,1003.17
2019-03-11T00:01:44.567Z,1003.28
2019-03-11T00:02:44.555Z,1003.26
2019-03-11T00:03:44.544Z,1003.32
2019-03-11T00:04:44.535Z,1003.28
2019-03-11T00:05:44.523Z,1003.31
2019-03-11T00:06:44.512Z,1003.32
2019-03-11T00:07:44.507Z,1003.39
2019-03-11T00:08:44.492Z,1003.39
2019-03-11T00:09:44.482Z,1003.38
2019-03-11T00:10:44.470Z,1003.48
2019-03-11T00:11:44.459Z,1003.41
2019-03-11T00:12:44.448Z,1003.39
2019-03-11T00:13:44.437Z,1003.42
2019-03-11T00:14:44.428Z,1003.39
2019-03-11T00:15:44.417Z,1003.46
2019-03-11T00:16:44.405Z,1003.40
2019-03-11T00:17:44.402Z,1003.42
2019-03-11T00:18:44.383Z,1003.39
2019-03-11T00:19:44.380Z,1003.40
2019-03-11T00:20:44.365Z,1003.44
2019-03-11T00:21:44.366Z,1003.52
2019-03-11T00:22:44.342Z,1003.64
2019-03-11T00:23:44.335Z,1003.62
2019-03-11T00:24:44.322Z,1003.65
2019-03-11T00:25:44.313Z,1003.56
2019-03-11T00:26:44.303Z,1003.58
2019-03-11T00:27:44.290Z,1003.70
2019-03-11T00:28:44.278Z,1003.61
2019-03-11T00:29:44.270Z,1003.66
2019-03-11T00:30:44.258Z,1003.61
2019-03-11T00:31:44.246Z,1003.67
2019-03-11T00:32:44.240Z,1003.63
2019-03-11T00:33:44.229Z,1003.70
2019-03-11T00:34:44.213Z,1003.76
2019-03-11T00:35:44.205Z,1003.76
2019-03-11T00:36:44.192Z,1003.77
2019-03-11T00:37:44.181Z,1003.77
2019-03-11T00:38:44.173Z,1003.80
2019-03-11T00:39:44.169Z,1003.84
2019-03-11T00:40:44.152Z,1003.81
2019-03-11T00:41:44.141Z,1003.85
2019-03-11T00:42:44.130Z,1003.90
2019-03-11T00:43:44.119Z,1003.91
2019-03-11T00:44:44.108Z,1003.93
2019-03-11T00:45:44.105Z,1003.89
2019-03-11T00:46:44.089Z,1003.85
2019-03-11T00:47:44.076Z,1003.85
2019-03-11T00:48:44.065Z,1003.94
2019-03-11T00:49:44.061Z,1003.93
2019-03-11T00:50:44.062Z,1003.91
2019-03-11T00:51:44.043Z,1003.92
2019-03-11T00:52:44.140Z,1004.00
2019-03-11T00:53:44.014Z,1003.99
2019-03-11T00:54:44.001Z,1004.07
2019-03-11T00:55:43.992Z,1004.07
2019-03-11T00:56:43.982Z,1004.09
2019-03-11T00:57:43.981Z,1004.01
2019-03-11T00:58:43.961Z,1004.16
2019-03-11T00:59:43.950Z,1004.11
2019-03-11T01:00:43.939Z,1004.08
2019-03-11T01:01:43.930Z,1004.16
2019-03-11T01:02:43.920Z,1004.13
2019-03-11T01:03:43.906Z,1004.20
2019-03-11T01:04:43.898Z,1004.24
2019-03-11T01:05:43.885Z,1004.20
2019-03-11T01:06:43.877Z,1004.23
2019-03-11T01:07:43.866Z,1004.19
2019-03-11T01:08:43.854Z,1004.23
2019-03-11T01:09:43.851Z,1004.36
2019-03-11T01:10:43.836Z,1004.26
2019-03-11T01:11:43.822Z,1004.24
2019-03-11T01:12:43.810Z,1004.34
2019-03-11T01:13:43.800Z,1004.34
2019-03-11T01:14:43.793Z,1004.32
2019-03-11T01:15:43.782Z,1004.29
2019-03-11T01:16:43.768Z,1004.31
2019-03-11T01:17:43.758Z,1004.38
2019-03-11T01:18:43.747Z,1004.31
2019-03-11T01:19:43.736Z,1004.33
2019-03-11T01:20:43.728Z,1004.29
2019-03-11T01:21:43.715Z,1004.24
2019-03-11T01:22:43.704Z,1004.31
2019-03-11T01:23:43.693Z,1004.31
2019-03-11T01:24:43.683Z,1004.33
2019-03-11T01:25:43.673Z,1004.25
2019-03-11T01:26:43.665Z,1004.32
2019-03-11T01:27:43.652Z,1004.26
2019-03-11T01:28:43.640Z,1004.36
2019-03-11T01:29:43.633Z,1004.34
2019-03-11T01:30:43.621Z,1004.25
2019-03-11T01:31:43.610Z,1004.25
2019-03-11T01:32:43.606Z,1004.31
2019-03-11T01:33:43.590Z,1004.17
2019-03-11T01:34:43.578Z,1004.24
2019-03-11T01:35:43.568Z,1004.28
2019-03-11T01:36:43.556Z,1004.28
2019-03-11T01:37:43.550Z,1004.26
2019-03-11T01:38:43.543Z,1004.25
2019-03-11T01:39:43.524Z,1004.25
2019-03-11T01:40:43.513Z,1004.22
2019-03-11T01:41:43.503Z,1004.20
2019-03-11T01:42:43.494Z,1004.25
2019-03-11T01:43:43.482Z,1004.12
2019-03-11T01:44:43.478Z,1004.20
2019-03-11T01:45:43.462Z,1004.21
2019-03-11T01:46:43.452Z,1004.28
2019-03-11T01:47:43.439Z,1004.23
2019-03-11T01:48:43.432Z,1004.23
2019-03-11T01:49:43.419Z,1004.24
2019-03-11T01:50:43.408Z,1004.15
2019-03-11T01:51:43.397Z,1004.29
2019-03-11T01:52:43.387Z,1004.09
2019-03-11T01:53:43.377Z,1004.28
2019-03-11T01:54:43.366Z,1004.25
2019-03-11T01:55:43.356Z,1004.24
2019-03-11T01:56:43.345Z,1004.21
2019-03-11T01:57:43.410Z,1004.24
2019-03-11T01:58:43.332Z,1004.24
2019-03-11T01:59:43.327Z,1004.20
2019-03-11T02:00:43.301Z,1004.23
2019-03-11T02:01:43.293Z,1004.23
2019-03-11T02:02:43.279Z,1004.25
2019-03-11T02:03:43.271Z,1004.25
2019-03-11T02:04:43.259Z,1004.26
2019-03-11T02:05:43.250Z,1004.25
2019-03-11T02:06:43.235Z,1004.22
2019-03-11T02:07:43.228Z,1004.27
2019-03-11T02:08:43.216Z,1004.20
2019-03-11T02:09:43.204Z,1004.15
2019-03-11T02:10:43.196Z,1004.17
2019-03-11T02:11:43.183Z,1004.18
2019-03-11T02:12:43.174Z,1004.20
2019-03-11T02:13:43.166Z,1004.20
2019-03-11T02:14:43.153Z,1004.25
2019-03-11T02:15:43.140Z,1004.19
2019-03-11T02:16:43.130Z,1004.16
2019-03-11T02:17:43.124Z,1004.23
2019-03-11T02:18:43.110Z,1004.20
2019-03-11T02:19:43.101Z,1004.20
2019-03-11T02:20:43.090Z,1004.24
2019-03-11T02:21:43.077Z,1004.17
2019-03-11T02:22:43.066Z,1004.16
2019-03-11T02:23:43.058Z,1004.19
2019-03-11T02:24:43.046Z,1004.19
2019-03-11T02:25:43.039Z,1004.24
2019-03-11T02:26:43.028Z,1004.25
2019-03-11T02:27:43.014Z,1004.24
2019-03-11T02:28:43.005Z,1004.21
2019-03-11T02:29:42.997Z,1004.26
2019-03-11T02:30:42.982Z,1004.25
2019-03-11T02:31:42.977Z,1004.30
2019-03-11T02:32:42.964Z,1004.26
2019-03-11T02:33:42.953Z,1004.33
2019-03-11T02:34:42.942Z,1004.37
2019-03-11T02:35:42.934Z,1004.30
2019-03-11T02:36:42.922Z,1004.31
2019-03-11T02:37:42.926Z,1004.30
2019-03-11T02:38:42.902Z,1004.29
2019-03-11T02:39:42.886Z,1004.40
2019-03-11T02:40:42.880Z,1004.35
2019-03-11T02:41:42.867Z,1004.29
2019-03-11T02:42:42.859Z,1004.40
2019-03-11T02:43:42.849Z,1004.31
2019-03-11T02:44:42.834Z,1004.36
2019-03-11T02:45:42.837Z,1004.35
2019-03-11T02:46:42.836Z,1004.31
2019-03-11T02:47:42.802Z,1004.29
2019-03-11T02:48:42.791Z,1004.19
2019-03-11T02:49:49.535Z,1004.35
2019-03-11T02:50:42.772Z,1004.37
2019-03-11T02:51:42.762Z,1004.30
2019-03-11T02:52:42.750Z,1004.36
2019-03-11T02:53:42.745Z,1004.39
2019-03-11T02:54:42.727Z,1004.42
2019-03-11T02:55:42.717Z,1004.30
2019-03-11T02:56:42.707Z,1004.34
2019-03-11T02:57:42.697Z,1004.34
2019-03-11T02:58:42.686Z,1004.32
2019-03-11T02:59:42.678Z,1004.25
2019-03-11T03:00:42.667Z,1004.31
2019-03-11T03:01:42.653Z,1004.30
2019-03-11T03:02:42.644Z,1004.28
2019-03-11T03:03:42.634Z,1004.31
2019-03-11T03:04:42.625Z,1004.24
2019-03-11T03:05:42.625Z,1004.31
2019-03-11T03:06:42.603Z,1004.25
2019-03-11T03:07:42.595Z,1004.23
2019-03-11T03:08:42.580Z,1004.30
2019-03-11T03:09:42.571Z,1004.19
2019-03-11T03:10:42.559Z,1004.29
2019-03-11T03:11:42.562Z,1004.28
2019-03-11T03:12:42.548Z,1004.26
2019-03-11T03:13:42.529Z,1004.28
2019-03-11T03:14:42.524Z,1004.26
2019-03-11T03:15:42.508Z,1004.23
2019-03-11T03:16:42.499Z,1004.18
2019-03-11T03:17:42.491Z,1004.20
2019-03-11T03:18:42.475Z,1004.23
2019-03-11T03:19:42.465Z,1004.16
2019-03-11T03:20:42.454Z,1004.18
2019-03-11T03:21:42.444Z,1004.21
2019-03-11T03:22:42.432Z,1004.20
2019-03-11T03:23:42.423Z,1004.22
2019-03-11T03:24:42.414Z,1004.24
2019-03-11T03:25:42.419Z,1004.26
2019-03-11T03:26:42.414Z,1004.23
2019-03-11T03:27:42.466Z,1004.28
2019-03-11T03:28:42.373Z,1004.25
2019-03-11T03:29:42.359Z,1004.23
2019-03-11T03:30:42.358Z,1004.20
2019-03-11T03:31:42.339Z,1004.24
2019-03-11T03:32:42.342Z,1004.20
2019-03-11T03:33:42.320Z,1004.18
2019-03-11T03:34:42.310Z,1004.22
2019-03-11T03:35:42.294Z,1004.19
2019-03-11T03:36:42.290Z,1004.17
2019-03-11T03:37:42.279Z,1004.24
2019-03-11T03:38:42.263Z,1004.22
2019-03-11T03:39:42.254Z,1004.18
2019-03-11T03:40:42.244Z,1004.13
2019-03-11T03:41:42.233Z,1004.21
2019-03-11T03:42:42.282Z,1004.19
2019-03-11T03:43:42.255Z,1004.08
2019-03-11T03:44:42.202Z,1004.20
2019-03-11T03:45:42.193Z,1004.20
2019-03-11T03:46:42.185Z,1004.13
2019-03-11T03:47:42.170Z,1004.06
2019-03-11T03:48:42.257Z,1004.09
2019-03-11T03:49:42.155Z,1004.15
2019-03-11T03:50:42.140Z,1004.09
2019-03-11T03:51:42.133Z,1004.10
2019-03-11T03:52:42.120Z,1004.14
2019-03-11T03:53:42.107Z,1004.12
2019-03-11T03:54:42.106Z,1004.12
2019-03-11T03:55:42.087Z,1004.07
2019-03-11T03:56:42.073Z,1004.15
2019-03-11T03:57:42.068Z,1004.05
2019-03-11T03:58:42.053Z,1004.09
2019-03-11T03:59:42.044Z,1004.04
2019-03-11T04:00:42.031Z,1004.06
2019-03-11T04:01:42.021Z,1004.04
2019-03-11T04:02:42.011Z,1004.02
2019-03-11T04:03:42.002Z,1004.06
2019-03-11T04:04:41.991Z,1004.05
2019-03-11T04:05:41.980Z,1004.02
2019-03-11T04:06:41.982Z,1004.12
2019-03-11T04:07:41.976Z,1004.02
2019-03-11T04:08:41.947Z,1004.06
2019-03-11T04:09:41.946Z,1004.07
2019-03-11T04:10:42.049Z,1004.05
2019-03-11T04:11:41.925Z,1004.05
2019-03-11T04:12:41.906Z,1004.01
2019-03-11T04:13:41.894Z,1004.05
2019-03-11T04:14:41.920Z,1004.05
2019-03-11T04:15:41.903Z,1004.08
2019-03-11T04:16:41.864Z,1004.02
2019-03-11T04:17:41.859Z,1004.03
2019-03-11T04:18:41.841Z,1004.03
2019-03-11T04:19:41.835Z,1003.95
2019-03-11T04:20:41.822Z,1004.00
2019-03-11T04:21:41.813Z,1003.95
2019-03-11T04:22:41.801Z,1003.94
2019-03-11T04:23:41.789Z,1003.95
2019-03-11T04:24:41.780Z,1003.98
2019-03-11T04:25:41.769Z,1004.05
2019-03-11T04:26:41.759Z,1003.93
2019-03-11T04:27:41.745Z,1003.98
2019-03-11T04:28:41.739Z,1003.95
2019-03-11T04:29:41.726Z,1003.91
2019-03-11T04:30:41.716Z,1003.90
2019-03-11T04:31:41.704Z,1003.91
2019-03-11T04:32:41.694Z,1003.92
2019-03-11T04:33:41.683Z,1003.91
2019-03-11T04:34:41.675Z,1003.93
2019-03-11T04:35:41.665Z,1003.93
2019-03-11T04:36:41.653Z,1003.97
2019-03-11T04:37:41.640Z,1003.88
2019-03-11T04:38:41.635Z,1004.01
2019-03-11T04:39:41.618Z,1003.97
2019-03-11T04:40:41.611Z,1003.94
2019-03-11T04:41:41.602Z,1003.92
2019-03-11T04:42:41.587Z,1003.99
2019-03-11T04:43:41.576Z,1003.98
2019-03-11T04:44:41.577Z,1003.99
2019-03-11T04:45:41.557Z,1003.97
2019-03-11T04:46:41.544Z,1003.99
2019-03-11T04:47:41.539Z,1003.93
2019-03-11T04:48:41.524Z,1004.04
2019-03-11T04:49:41.516Z,1003.96
2019-03-11T04:50:41.508Z,1004.00
2019-03-11T04:51:41.493Z,1004.00
2019-03-11T04:52:41.483Z,1004.03
2019-03-11T04:53:41.478Z,1003.99
2019-03-11T04:54:41.461Z,1004.04
2019-03-11T04:55:41.460Z,1004.01
2019-03-11T04:56:41.438Z,1004.05
2019-03-11T04:57:41.431Z,1004.04
2019-03-11T04:58:41.418Z,1004.03
2019-03-11T04:59:41.408Z,1004.11
2019-03-11T05:00:41.398Z,1004.04
2019-03-11T05:01:41.390Z,1004.06
2019-03-11T05:02:41.375Z,1003.97
2019-03-11T05:03:41.367Z,1004.01
2019-03-11T05:04:41.355Z,1003.99
2019-03-11T05:05:41.355Z,1004.03
2019-03-11T05:06:41.334Z,1004.07
2019-03-11T05:07:41.326Z,1004.02
2019-03-11T05:08:41.311Z,1004.09
2019-03-11T05:09:41.301Z,1004.02
2019-03-11T05:10:41.293Z,1004.03
2019-03-11T05:11:41.280Z,1004.04
2019-03-11T05:12:41.272Z,1004.10
2019-03-11T05:13:41.268Z,1004.10
2019-03-11T05:14:41.258Z,1004.09
2019-03-11T05:15:41.238Z,1004.10
2019-03-11T05:16:41.228Z,1003.98
2019-03-11T05:17:41.217Z,1004.13
2019-03-11T05:18:41.208Z,1004.09
2019-03-11T05:19:41.199Z,1004.07
2019-03-11T05:20:41.185Z,1004.06
2019-03-11T05:21:41.175Z,1004.14
2019-03-11T05:22:41.164Z,1004.12
2019-03-11T05:23:41.181Z,1004.12
2019-03-11T05:24:41.143Z,1004.11
2019-03-11T05:25:41.139Z,1004.10
2019-03-11T05:26:41.124Z,1004.13
2019-03-11T05:27:41.112Z,1004.13
2019-03-11T05:28:41.107Z,1004.10
2019-03-11T05:29:41.090Z,1004.13
2019-03-11T05:30:41.083Z,1004.09
2019-03-11T05:31:41.069Z,1004.09
2019-03-11T05:32:41.059Z,1004.07
2019-03-11T05:33:41.049Z,1004.07
2019-03-11T05:34:41.040Z,1004.05
2019-03-11T05:35:41.033Z,1004.09
2019-03-11T05:36:41.022Z,1004.06
2019-03-11T05:37:41.008Z,1004.02
2019-03-11T05:38:40.994Z,1004.03
2019-03-11T05:39:40.989Z,1004.07
2019-03-11T05:40:40.977Z,1004.11
2019-03-11T05:41:40.965Z,1004.04
2019-03-11T05:42:40.953Z,1004.05
2019-03-11T05:43:40.943Z,1004.07
2019-03-11T05:44:40.931Z,1004.08
2019-03-11T05:45:40.922Z,1004.05
2019-03-11T05:46:40.912Z,1004.04
2019-03-11T05:47:40.902Z,1004.04
2019-03-11T05:48:40.892Z,1004.05
2019-03-11T05:49:40.877Z,1004.05
2019-03-11T05:50:40.867Z,1004.05
2019-03-11T05:51:40.856Z,1003.99
2019-03-11T05:52:40.850Z,1004.01
2019-03-11T05:53:40.838Z,1004.05
2019-03-11T05:54:40.824Z,1004.09
2019-03-11T05:55:40.837Z,1003.99
2019-03-11T05:56:40.805Z,1004.12
2019-03-11T05:57:40.797Z,1004.11
2019-03-11T05:58:40.789Z,1004.07
2019-03-11T05:59:40.772Z,1004.00
2019-03-11T06:00:40.780Z,1004.10
2019-03-11T06:01:40.750Z,1004.10
2019-03-11T06:02:40.742Z,1004.06
2019-03-11T06:03:40.731Z,1004.01
2019-03-11T06:04:40.720Z,1004.09
2019-03-11T06:05:40.712Z,1004.14
2019-03-11T06:06:40.697Z,1004.17
2019-03-11T06:07:42.571Z,1004.08
2019-03-11T06:08:40.677Z,1004.19
2019-03-11T06:09:40.668Z,1004.10
2019-03-11T06:10:40.656Z,1004.16
2019-03-11T06:11:40.652Z,1004.19
2019-03-11T06:12:40.634Z,1004.16
2019-03-11T06:13:40.632Z,1004.19
2019-03-11T06:14:40.615Z,1004.18
2019-03-11T06:15:40.609Z,1004.12
2019-03-11T06:16:40.589Z,1004.18
2019-03-11T06:17:40.698Z,1004.20
2019-03-11T06:18:40.569Z,1004.22
2019-03-11T06:19:40.652Z,1004.22
2019-03-11T06:20:40.550Z,1004.17
2019-03-11T06:21:40.538Z,1004.19
2019-03-11T06:22:40.528Z,1004.16
2019-03-11T06:23:40.554Z,1004.19
2019-03-11T06:24:40.590Z,1004.17
2019-03-11T06:25:40.499Z,1004.17
2019-03-11T06:26:40.487Z,1004.15
2019-03-11T06:27:40.475Z,1004.24
2019-03-11T06:28:40.464Z,1004.22
2019-03-11T06:29:40.453Z,1004.24
2019-03-11T06:30:40.443Z,1004.19
2019-03-11T06:31:40.431Z,1004.17
2019-03-11T06:32:40.422Z,1004.17
2019-03-11T06:33:40.760Z,1004.16
2019-03-11T06:34:40.409Z,1004.17
2019-03-11T06:35:40.715Z,1004.17
2019-03-11T06:36:40.381Z,1004.17
2019-03-11T06:37:40.368Z,1004.21
2019-03-11T06:38:40.358Z,1004.22
2019-03-11T06:39:40.403Z,1004.20
2019-03-11T06:40:40.339Z,1004.18
2019-03-11T06:41:40.327Z,1004.19
2019-03-11T06:42:40.316Z,1004.15
2019-03-11T06:43:40.403Z,1004.16
2019-03-11T06:44:40.294Z,1004.17
2019-03-11T06:45:40.284Z,1004.15
2019-03-11T06:46:40.279Z,1004.16
2019-03-11T06:47:40.265Z,1004.14
2019-03-11T06:48:40.250Z,1004.13
2019-03-11T06:49:40.240Z,1004.14
2019-03-11T06:50:40.231Z,1004.13
2019-03-11T06:51:40.227Z,1004.10
2019-03-11T06:52:40.212Z,1004.11
2019-03-11T06:53:40.199Z,1004.09
2019-03-11T06:54:40.188Z,1004.09
2019-03-11T06:55:40.181Z,1004.10
2019-03-11T06:56:40.167Z,1004.13
2019-03-11T06:57:40.178Z,1004.10
2019-03-11T06:58:40.151Z,1004.13
2019-03-11T06:59:40.137Z,1004.09
2019-03-11T07:00:40.127Z,1004.09
2019-03-11T07:01:40.115Z,1004.09
2019-03-11T07:02:40.107Z,1004.03
2019-03-11T07:03:40.093Z,1004.00
2019-03-11T07:04:40.083Z,1004.04
2019-03-11T07:05:40.071Z,1004.05
2019-03-11T07:06:40.061Z,1003.97
2019-03-11T07:07:40.049Z,1004.06
2019-03-11T07:08:40.040Z,1004.02
2019-03-11T07:09:40.032Z,1004.02
2019-03-11T07:10:40.044Z,1004.02
2019-03-11T07:11:40.006Z,1003.96
2019-03-11T07:12:39.999Z,1004.04
2019-03-11T07:13:39.986Z,1004.02
2019-03-11T07:14:39.977Z,1004.01
2019-03-11T07:15:39.966Z,1004.03
2019-03-11T07:16:39.954Z,1004.05
2019-03-11T07:17:39.947Z,1003.94
2019-03-11T07:18:39.939Z,1004.05
2019-03-11T07:19:39.923Z,1004.03
2019-03-11T07:20:39.913Z,1004.07
2019-03-11T07:21:39.904Z,1004.06
2019-03-11T07:22:39.892Z,1004.13
2019-03-11T07:23:39.884Z,1004.03
2019-03-11T07:24:39.869Z,1004.10
2019-03-11T07:25:39.861Z,1004.08
2019-03-11T07:26:39.926Z,1004.09
2019-03-11T07:27:39.842Z,1004.05
2019-03-11T07:28:39.833Z,1004.09
2019-03-11T07:29:39.816Z,1004.10
2019-03-11T07:30:39.806Z,1004.04
2019-03-11T07:31:39.796Z,1004.04
2019-03-11T07:32:39.784Z,1004.00
2019-03-11T07:33:39.774Z,1004.08
2019-03-11T07:34:39.763Z,1004.10
2019-03-11T07:35:39.753Z,1004.13
2019-03-11T07:36:39.742Z,1004.15
2019-03-11T07:37:39.734Z,1004.20
2019-03-11T07:38:39.722Z,1004.19
2019-03-11T07:39:39.711Z,1004.19
2019-03-11T07:40:39.699Z,1004.23
2019-03-11T07:41:39.692Z,1004.16
2019-03-11T07:42:39.679Z,1004.26
2019-03-11T07:43:39.668Z,1004.27
2019-03-11T07:44:39.661Z,1004.34
2019-03-11T07:45:39.648Z,1004.27
2019-03-11T07:46:39.637Z,1004.27
2019-03-11T07:47:39.629Z,1004.19
2019-03-11T07:48:39.614Z,1004.27
2019-03-11T07:49:39.607Z,1004.32
2019-03-11T07:50:39.596Z,1004.30
2019-03-11T07:51:39.582Z,1004.30
2019-03-11T07:52:39.572Z,1004.29
2019-03-11T07:53:39.563Z,1004.29
2019-03-11T07:54:39.554Z,1004.35
2019-03-11T07:55:39.565Z,1004.39
2019-03-11T07:56:39.529Z,1004.27
2019-03-11T07:57:39.523Z,1004.24
2019-03-11T07:58:39.508Z,1004.22
2019-03-11T07:59:39.499Z,1004.23
2019-03-11T08:00:39.487Z,1004.20
2019-03-11T08:01:39.476Z,1004.20
2019-03-11T08:02:39.603Z,1004.11
2019-03-11T08:03:39.454Z,1004.22
2019-03-11T08:04:39.443Z,1004.17
2019-03-11T08:05:39.432Z,1004.17
2019-03-11T08:06:39.433Z,1004.15
2019-03-11T08:07:39.419Z,1004.30
2019-03-11T08:08:39.400Z,1004.21
2019-03-11T08:09:39.403Z,1004.26
2019-03-11T08:10:39.387Z,1004.21
2019-03-11T08:11:39.373Z,1004.28
2019-03-11T08:12:39.356Z,1004.32
2019-03-11T08:13:39.348Z,1004.28
2019-03-11T08:14:39.338Z,1004.28
2019-03-11T08:15:39.325Z,1004.30
2019-03-11T08:16:39.314Z,1004.33
2019-03-11T08:17:39.305Z,1004.28
2019-03-11T08:18:39.298Z,1004.28
2019-03-11T08:19:39.282Z,1004.34
2019-03-11T08:20:39.272Z,1004.31
2019-03-11T08:21:39.262Z,1004.33
2019-03-11T08:22:39.256Z,1004.31
2019-03-11T08:23:39.240Z,1004.34
2019-03-11T08:24:39.231Z,1004.39
2019-03-11T08:25:39.221Z,1004.38
2019-03-11T08:26:39.207Z,1004.39
2019-03-11T08:27:39.198Z,1004.41
2019-03-11T08:28:39.191Z,1004.45
2019-03-11T08:29:39.176Z,1004.43
2019-03-11T08:30:39.165Z,1004.45
2019-03-11T08:31:39.164Z,1004.40
2019-03-11T08:32:39.146Z,1004.38
2019-03-11T08:33:39.134Z,1004.44
2019-03-11T08:34:39.124Z,1004.42
2019-03-11T08:35:39.117Z,1004.47
2019-03-11T08:36:39.107Z,1004.45
2019-03-11T08:37:39.096Z,1004.46
2019-03-11T08:38:39.081Z,1004.50
2019-03-11T08:39:39.069Z,1004.49
2019-03-11T08:40:39.059Z,1004.48
2019-03-11T08:41:39.053Z,1004.51
2019-03-11T08:42:39.038Z,1004.51
2019-03-11T08:43:39.029Z,1004.56
2019-03-11T08:44:39.020Z,1004.48
2019-03-11T08:45:39.005Z,1004.58
2019-03-11T08:46:38.996Z,1004.60
2019-03-11T08:47:38.988Z,1004.52
2019-03-11T08:48:38.974Z,1004.59
2019-03-11T08:49:38.966Z,1004.68
2019-03-11T08:50:38.960Z,1004.58
2019-03-11T08:51:38.943Z,1004.62
2019-03-11T08:52:38.933Z,1004.63
2019-03-11T08:53:38.926Z,1004.64
2019-03-11T08:54:38.910Z,1004.65
2019-03-11T08:55:38.900Z,1004.59
2019-03-11T08:56:38.890Z,1004.51
2019-03-11T08:57:40.369Z,1004.61
2019-03-11T08:58:38.868Z,1004.55
2019-03-11T08:59:38.858Z,1004.66
2019-03-11T09:00:38.847Z,1004.54
2019-03-11T09:01:38.836Z,1004.58
2019-03-11T09:02:38.838Z,1004.56
2019-03-11T09:03:38.820Z,1004.50
2019-03-11T09:04:38.803Z,1004.63
2019-03-11T09:05:38.799Z,1004.58
2019-03-11T09:06:38.788Z,1004.65
2019-03-11T09:07:38.778Z,1004.57
2019-03-11T09:08:38.763Z,1004.61
2019-03-11T09:09:38.756Z,1004.62
2019-03-11T09:10:38.742Z,1004.61
2019-03-11T09:11:38.732Z,1004.62
2019-03-11T09:12:38.726Z,1004.70
2019-03-11T09:13:38.715Z,1004.57
2019-03-11T09:14:38.698Z,1004.69
2019-03-11T09:15:38.687Z,1004.63
2019-03-11T09:16:38.677Z,1004.62
2019-03-11T09:17:38.668Z,1004.73
2019-03-11T09:18:38.656Z,1004.65
2019-03-11T09:19:38.646Z,1004.72
2019-03-11T09:20:38.634Z,1004.68
2019-03-11T09:21:38.739Z,1004.69
2019-03-11T09:22:38.615Z,1004.73
2019-03-11T09:23:38.602Z,1004.70
2019-03-11T09:24:38.595Z,1004.77
2019-03-11T09:25:38.584Z,1004.70
2019-03-11T09:26:38.570Z,1004.70
2019-03-11T09:27:38.585Z,1004.80
2019-03-11T09:28:38.551Z,1004.78
2019-03-11T09:29:38.567Z,1004.71
2019-03-11T09:30:38.533Z,1004.79
2019-03-11T09:31:38.518Z,1004.73
2019-03-11T09:32:38.507Z,1004.77
2019-03-11T09:33:38.497Z,1004.75
2019-03-11T09:34:38.486Z,1004.76
2019-03-11T09:35:38.475Z,1004.72
2019-03-11T09:36:38.475Z,1004.77
2019-03-11T09:37:38.454Z,1004.85
2019-03-11T09:38:38.448Z,1004.72
2019-03-11T09:39:38.432Z,1004.78
2019-03-11T09:40:38.424Z,1004.78
2019-03-11T09:41:38.415Z,1004.71
2019-03-11T09:42:38.404Z,1004.72
2019-03-11T09:43:38.389Z,1004.72
2019-03-11T09:44:38.379Z,1004.77
2019-03-11T09:45:38.368Z,1004.71
2019-03-11T09:46:38.758Z,1004.68
2019-03-11T09:47:38.347Z,1004.75
2019-03-11T09:48:38.339Z,1004.74
2019-03-11T09:49:38.327Z,1004.69
2019-03-11T09:50:38.316Z,1004.76
2019-03-11T09:51:38.307Z,1004.76
2019-03-11T09:52:38.295Z,1004.83
2019-03-11T09:53:38.285Z,1004.74
2019-03-11T09:54:38.275Z,1004.73
2019-03-11T09:55:38.267Z,1004.63
2019-03-11T09:56:43.292Z,1004.69
2019-03-11T09:57:39.243Z,1004.75
2019-03-11T09:58:38.232Z,1004.70
2019-03-11T09:59:38.221Z,1004.74
2019-03-11T10:00:38.209Z,1004.69
2019-03-11T10:01:38.200Z,1004.69
2019-03-11T10:02:38.188Z,1004.73
2019-03-11T10:03:38.177Z,1004.74
2019-03-11T10:04:38.166Z,1004.77
2019-03-11T10:05:38.161Z,1004.69
2019-03-11T10:06:38.146Z,1004.71
2019-03-11T10:07:38.139Z,1004.69
2019-03-11T10:08:38.123Z,1004.67
2019-03-11T10:09:38.116Z,1004.64
2019-03-11T10:10:38.105Z,1004.57
2019-03-11T10:11:38.092Z,1004.67
2019-03-11T10:12:38.080Z,1004.59
2019-03-11T10:13:38.071Z,1004.63
2019-03-11T10:14:38.062Z,1004.59
2019-03-11T10:15:38.062Z,1004.60
2019-03-11T10:16:38.042Z,1004.69
2019-03-11T10:17:38.034Z,1004.64
2019-03-11T10:18:38.016Z,1004.60
2019-03-11T10:19:38.060Z,1004.64
2019-03-11T10:20:38.000Z,1004.70
2019-03-11T10:21:37.987Z,1004.70
2019-03-11T10:22:37.978Z,1004.69
2019-03-11T10:23:37.962Z,1004.73
2019-03-11T10:24:37.952Z,1004.74
2019-03-11T10:25:37.942Z,1004.71
2019-03-11T10:26:37.929Z,1004.66
2019-03-11T10:27:37.922Z,1004.70
2019-03-11T10:28:37.908Z,1004.70
2019-03-11T10:29:37.899Z,1004.75
2019-03-11T10:30:37.891Z,1004.73
2019-03-11T10:31:37.881Z,1004.71
2019-03-11T10:32:37.865Z,1004.66
2019-03-11T10:33:37.854Z,1004.66
2019-03-11T10:34:37.847Z,1004.70
2019-03-11T10:35:37.837Z,1004.77
2019-03-11T10:36:37.822Z,1004.71
2019-03-11T10:37:37.825Z,1004.77
2019-03-11T10:38:37.800Z,1004.54
2019-03-11T10:39:37.789Z,1004.71
2019-03-11T10:40:37.782Z,1004.70
2019-03-11T10:41:37.768Z,1004.72
2019-03-11T10:42:37.756Z,1004.75
2019-03-11T10:43:37.749Z,1004.76
2019-03-11T10:44:37.735Z,1004.76
2019-03-11T10:45:37.725Z,1004.78
2019-03-11T10:46:37.714Z,1004.82
2019-03-11T10:47:37.702Z,1004.75
2019-03-11T10:48:37.730Z,1004.74
2019-03-11T10:49:37.688Z,1004.70
2019-03-11T10:50:37.671Z,1004.73
2019-03-11T10:51:37.663Z,1004.76
2019-03-11T10:52:37.648Z,1004.75
2019-03-11T10:53:37.642Z,1004.74
2019-03-11T10:54:37.628Z,1004.70
2019-03-11T10:55:37.617Z,1004.73
2019-03-11T10:56:37.608Z,1004.75
2019-03-11T10:57:37.599Z,1004.62
2019-03-11T10:58:37.584Z,1004.64
2019-03-11T10:59:37.579Z,1004.71
2019-03-11T11:00:37.567Z,1004.70
2019-03-11T11:01:37.556Z,1004.62
2019-03-11T11:02:37.545Z,1004.65
2019-03-11T11:03:37.532Z,1004.59
2019-03-11T11:04:37.522Z,1004.57
2019-03-11T11:05:37.510Z,1004.61
2019-03-11T11:06:37.501Z,1004.57
2019-03-11T11:07:37.487Z,1004.53
2019-03-11T11:08:37.478Z,1004.49
2019-03-11T11:09:37.469Z,1004.62
2019-03-11T11:10:37.456Z,1004.52
2019-03-11T11:11:37.451Z,1004.52
2019-03-11T11:12:37.436Z,1004.56
2019-03-11T11:13:37.425Z,1004.59
2019-03-11T11:14:37.414Z,1004.60
2019-03-11T11:15:37.412Z,1004.59
2019-03-11T11:16:37.392Z,1004.54
2019-03-11T11:17:37.385Z,1004.47
2019-03-11T11:18:37.371Z,1004.55
2019-03-11T11:19:37.360Z,1004.44
2019-03-11T11:20:37.350Z,1004.54
2019-03-11T11:21:37.337Z,1004.65
2019-03-11T11:22:37.327Z,1004.66
2019-03-11T11:23:37.316Z,1004.60
2019-03-11T11:24:37.306Z,1004.59
2019-03-11T11:25:37.296Z,1004.63
2019-03-11T11:26:37.285Z,1004.61
2019-03-11T11:27:37.276Z,1004.52
2019-03-11T11:28:37.262Z,1004.70
2019-03-11T11:29:37.254Z,1004.72
2019-03-11T11:30:37.240Z,1004.80
2019-03-11T11:31:37.230Z,1004.80
2019-03-11T11:32:37.219Z,1004.82
2019-03-11T11:33:37.210Z,1004.83
2019-03-11T11:34:37.199Z,1004.76
2019-03-11T11:35:37.187Z,1004.79
2019-03-11T11:36:37.179Z,1004.87
2019-03-11T11:37:37.167Z,1004.84
2019-03-11T11:38:37.156Z,1004.93
2019-03-11T11:39:37.149Z,1004.86
2019-03-11T11:40:37.135Z,1004.88
2019-03-11T11:41:37.132Z,1004.95
2019-03-11T11:42:37.112Z,1004.92
2019-03-11T11:43:37.103Z,1004.92
2019-03-11T11:44:37.094Z,1004.86
2019-03-11T11:45:37.087Z,1004.83
2019-03-11T11:46:37.070Z,1004.98
2019-03-11T11:47:37.060Z,1005.03
2019-03-11T11:48:37.049Z,1005.08
2019-03-11T11:49:37.040Z,1005.12
2019-03-11T11:50:37.029Z,1005.03
2019-03-11T11:51:37.018Z,1005.06
2019-03-11T11:52:37.007Z,1004.98
2019-03-11T11:53:36.998Z,1005.01
2019-03-11T11:54:36.986Z,1005.06
2019-03-11T11:55:37.208Z,1005.03
2019-03-11T11:56:36.967Z,1005.08
2019-03-11T11:57:36.953Z,1005.13
2019-03-11T11:58:36.945Z,1005.17
2019-03-11T11:59:36.938Z,1005.18
2019-03-11T12:00:36.923Z,1005.26
2019-03-11T12:01:36.910Z,1005.09
2019-03-11T12:02:36.901Z,1005.19
2019-03-11T12:03:36.889Z,1005.15
2019-03-11T12:04:36.882Z,1005.07
2019-03-11T12:05:36.869Z,1005.15